Wind From: 20-09-2018 17:00 Until: 20:00 warning for: Wind Level: Yellow info button
suomi:
Tuulivaroitus maa-alueille: Lounaistuuli on voimakasta illalla, tuulen nopeus puuskissa 15 m/s.

svenska:
Vindvarning för landområden: På kvällen är den sydvästliga vinden kraftigt, i vindbyarna 15 m/s.

english:
Wind warning for land areas: In the evening, strong winds from southwest may bring strong gusts of 15 m/s. 


Thunder radar more information blitzortung!


Löydät sääaseman tiedot myös:

European Weather Network

Finland Weather Exchange

Weather Underground

AWEKAS



Weather Underground säähistoriasivu

Päivittäin yhteenveto Helmikuu 19, 2017 Yksiköt:  Englantilaiset    Metriset   Molemmat
« Edellinen Päivä
Seuraava Päivä »
Päivittäin Viikoittain Kuukausittain Vuosittain Mukautettu
  Korkea: Matala: Keskiarvo:
Lämpötila: TemperatureC °F -0.7 °F 1.7 °F
Kastepiste: DewpointC °F -2.0 °F 1.1 °F
Kosteus: Humidity % 90 % 94 %
Tuulen nopeus: WindSpeedKMH mph 1.6 mph 5.4 mph
Tuulenpuuska: WindSpeedGustKMH mph - -
Tuuli:- - SW
Ilmanpaine: PressurehPa in 984.0 in -
Sade: 0.0 in    
Historical Graphs
 
 
Taulukkotiedot Helmikuu 19, 2017
Aika Lämpötila Kastepiste Ilmanpaine Tuuli Tuulen nopeus Tuulenpuuska Kosteus Sademäärä (tunneittain)
TemperatureC °F DewpointC °F PressurehPa in Calm     Humidity % HourlyPrecipMM in
00:00 1.4 °F 0.8 °F 997.9 in South 1.6 mph 9.7 mph 96 % 0.0 in
00:15 1.3 °F 0.7 °F 997.5 in SSW 1.6 mph 11.3 mph 96 % 0.0 in
00:30 1.2 °F 0.6 °F 997.2 in SSW 3.2 mph 9.7 mph 96 % 0.0 in
00:45 1.1 °F 0.5 °F 996.8 in SSW 4.8 mph 11.3 mph 96 % 0.0 in
01:00 0.9 °F 0.4 °F 996.5 in SSW 4.8 mph 11.3 mph 96 % 0.0 in
01:15 0.8 °F 0.1 °F 996.2 in SSW 3.2 mph 12.9 mph 95 % 0.0 in
01:30 0.8 °F 0.1 °F 995.8 in SSW 4.8 mph 14.5 mph 95 % 0.0 in
01:45 0.7 °F 0.0 °F 995.8 in SSW 8.0 mph 16.1 mph 95 % 0.0 in
02:00 0.7 °F 0.0 °F 995.8 in SSW 6.4 mph 12.9 mph 95 % 0.0 in
02:15 0.7 °F 0.0 °F 995.5 in SSW 6.4 mph 14.5 mph 95 % 0.0 in
02:30 0.7 °F 0.0 °F 995.1 in SW 6.4 mph 12.9 mph 95 % 0.0 in
02:45 0.8 °F 0.1 °F 995.1 in SSW 4.8 mph 14.5 mph 95 % 0.0 in
03:00 0.8 °F 0.1 °F 994.8 in SSW 6.4 mph 16.1 mph 95 % 0.0 in
03:15 0.8 °F 0.1 °F 994.5 in SSW 6.4 mph 12.9 mph 95 % 0.0 in
03:30 0.8 °F 0.1 °F 994.1 in SSW 6.4 mph 16.1 mph 95 % 0.0 in
03:45 0.8 °F 0.1 °F 993.8 in SSW 6.4 mph 17.7 mph 95 % 0.0 in
04:00 0.9 °F 0.0 °F 993.5 in SSW 6.4 mph 17.7 mph 94 % 0.0 in
04:15 0.9 °F 0.0 °F 993.1 in SSW 8.0 mph 17.7 mph 94 % 0.0 in
04:30 0.8 °F 0.0 °F 993.1 in SSW 8.0 mph 14.5 mph 94 % 0.0 in
04:45 0.8 °F -0.1 °F 992.8 in SSW 8.0 mph 19.3 mph 94 % 0.0 in
05:00 0.7 °F -0.1 °F 992.4 in SSW 4.8 mph 14.5 mph 94 % 0.0 in
05:15 0.8 °F -0.1 °F 992.1 in SSW 9.7 mph 17.7 mph 94 % 0.0 in
05:30 0.7 °F -0.1 °F 991.8 in SSW 8.0 mph 14.5 mph 94 % 0.0 in
05:45 0.8 °F -0.1 °F 991.8 in SSW 6.4 mph 17.7 mph 94 % 0.0 in
06:00 0.8 °F 0.0 °F 991.4 in SSW 8.0 mph 20.9 mph 94 % 0.0 in
06:15 0.8 °F 0.0 °F 991.4 in SSW 8.0 mph 14.5 mph 94 % 0.0 in
06:30 0.9 °F 0.0 °F 991.1 in SSW 9.7 mph 19.3 mph 94 % 0.0 in
06:45 0.9 °F 0.0 °F 990.7 in SSW 9.7 mph 22.5 mph 94 % 0.0 in
07:00 0.8 °F 0.0 °F 990.4 in SSW 8.0 mph 17.7 mph 94 % 0.0 in
07:15 0.8 °F -0.1 °F 990.1 in SSW 8.0 mph 22.5 mph 94 % 0.0 in
07:30 0.8 °F -0.1 °F 990.1 in SSW 4.8 mph 16.1 mph 94 % 0.0 in
07:45 0.8 °F 0.1 °F 990.1 in SSW 6.4 mph 16.1 mph 95 % 0.0 in
08:00 0.8 °F 0.1 °F 989.7 in SSW 8.0 mph 14.5 mph 95 % 0.0 in
08:15 0.8 °F 0.1 °F 989.7 in SSW 9.7 mph 17.7 mph 95 % 0.0 in
08:30 0.9 °F 0.2 °F 989.4 in SSW 8.0 mph 22.5 mph 95 % 0.0 in
08:45 0.9 °F 0.2 °F 989.1 in SSW 6.4 mph 17.7 mph 95 % 0.0 in
09:00 0.9 °F 0.3 °F 989.1 in SSW 4.8 mph 12.9 mph 96 % 0.0 in
09:15 0.9 °F 0.3 °F 989.1 in SSW 4.8 mph 12.9 mph 96 % 0.0 in
09:30 0.9 °F 0.4 °F 989.1 in SSW 4.8 mph 16.1 mph 96 % 0.0 in
09:45 1.0 °F 0.4 °F 988.7 in SSW 6.4 mph 14.5 mph 96 % 0.0 in
10:00 1.1 °F 0.5 °F 989.1 in SSW 6.4 mph 16.1 mph 96 % 0.0 in
10:15 1.2 °F 0.7 °F 989.1 in SSW 4.8 mph 16.1 mph 96 % 0.0 in
10:30 1.3 °F 0.9 °F 988.7 in SSW 4.8 mph 9.7 mph 97 % 0.0 in
10:45 1.5 °F 1.1 °F 988.7 in SW 3.2 mph 9.7 mph 97 % 0.0 in
11:00 1.7 °F 1.3 °F 988.7 in SSW 3.2 mph 6.4 mph 97 % 0.0 in
11:15 1.8 °F 1.4 °F 988.4 in SW 3.2 mph 8.0 mph 97 % 0.0 in
11:30 2.0 °F 1.6 °F 988.4 in SSW 3.2 mph 12.9 mph 97 % 0.0 in
11:45 2.2 °F 1.7 °F 988.4 in WSW 3.2 mph 8.0 mph 97 % 0.0 in
12:00 2.3 °F 1.9 °F 988.4 in SSW 3.2 mph 8.0 mph 97 % 0.0 in
12:15 2.5 °F 2.1 °F 988.4 in SSW 4.8 mph 11.3 mph 97 % 0.0 in
12:30 2.7 °F 2.2 °F 988.4 in SW 3.2 mph 8.0 mph 97 % 0.0 in
12:45 2.8 °F 2.4 °F 988.0 in SW 3.2 mph 11.3 mph 97 % 0.0 in
13:00 3.1 °F 2.7 °F 988.0 in SSW 1.6 mph 8.0 mph 97 % 0.0 in
13:15 3.3 °F 2.9 °F 987.7 in SW 3.2 mph 9.7 mph 97 % 0.0 in
13:30 3.4 °F 3.0 °F 987.7 in WSW 3.2 mph 11.3 mph 97 % 0.0 in
13:45 3.4 °F 3.0 °F 988.0 in West 1.6 mph 11.3 mph 97 % 0.0 in
14:00 3.4 °F 3.0 °F 987.7 in West 3.2 mph 8.0 mph 97 % 0.0 in
14:15 3.4 °F 3.0 °F 987.7 in WSW 3.2 mph 14.5 mph 97 % 0.0 in
14:30 3.5 °F 3.1 °F 987.7 in WSW 3.2 mph 9.7 mph 97 % 0.0 in
14:45 3.5 °F 2.9 °F 987.7 in SW 3.2 mph 11.3 mph 96 % 0.0 in
15:00 3.4 °F 2.9 °F 987.7 in SW 3.2 mph 9.7 mph 96 % 0.0 in
15:15 3.4 °F 2.9 °F 987.7 in WSW 1.6 mph 9.7 mph 96 % 0.0 in
15:30 3.6 °F 3.0 °F 987.4 in SSW 3.2 mph 9.7 mph 96 % 0.0 in
15:45 3.6 °F 3.0 °F 987.4 in SW 3.2 mph 9.7 mph 96 % 0.0 in
16:00 3.4 °F 2.9 °F 987.4 in SSW 3.2 mph 6.4 mph 96 % 0.0 in
16:15 3.3 °F 2.7 °F 987.0 in SW 3.2 mph 12.9 mph 96 % 0.0 in
16:30 3.3 °F 2.7 °F 987.0 in SSW 1.6 mph 6.4 mph 96 % 0.0 in
16:45 3.2 °F 2.6 °F 986.7 in SSW 1.6 mph 8.0 mph 96 % 0.0 in
17:00 3.3 °F 2.7 °F 986.7 in SSW 3.2 mph 11.3 mph 96 % 0.0 in
17:15 3.2 °F 2.6 °F 986.3 in SSW 3.2 mph 12.9 mph 96 % 0.0 in
17:30 3.1 °F 2.5 °F 986.0 in SSW 3.2 mph 9.7 mph 96 % 0.0 in
17:45 3.1 °F 2.5 °F 986.0 in SSW 3.2 mph 9.7 mph 96 % 0.0 in
18:00 3.1 °F 2.5 °F 985.7 in SSW 6.4 mph 12.9 mph 96 % 0.0 in
18:15 3.1 °F 2.7 °F 985.3 in SSW 3.2 mph 11.3 mph 97 % 0.0 in
18:30 3.3 °F 2.8 °F 985.3 in SSW 4.8 mph 11.3 mph 97 % 0.0 in
18:45 3.5 °F 3.1 °F 985.0 in SSW 6.4 mph 17.7 mph 97 % 0.0 in
19:15 3.8 °F 3.3 °F 984.6 in SSW 6.4 mph 12.9 mph 97 % 0.0 in
19:30 3.8 °F 3.3 °F 984.6 in SSW 6.4 mph 17.7 mph 96 % 0.0 in
19:45 3.9 °F 3.4 °F 984.3 in SSW 4.8 mph 16.1 mph 96 % 0.0 in
20:00 3.9 °F 3.4 °F 984.0 in SSW 4.8 mph 16.1 mph 96 % 0.0 in
20:15 3.9 °F 3.4 °F 984.0 in SSW 8.0 mph 17.7 mph 96 % 0.0 in
20:30 3.8 °F 3.1 °F 984.0 in SW 4.8 mph 14.5 mph 95 % 0.0 in
20:45 3.8 °F 3.1 °F 984.3 in West 6.4 mph 25.7 mph 95 % 0.0 in
21:00 3.3 °F 2.3 °F 985.0 in NW 8.0 mph 16.1 mph 93 % 0.0 in
21:15 1.8 °F 1.0 °F 985.3 in NW 6.4 mph 17.7 mph 94 % 0.0 in
21:30 0.9 °F 0.1 °F 986.0 in NNW 8.0 mph 25.7 mph 94 % 0.0 in
21:45 0.4 °F -0.5 °F 986.3 in NNW 8.0 mph 20.9 mph 94 % 0.0 in
22:00 0.0 °F -1.0 °F 986.7 in NNW 11.3 mph 30.6 mph 93 % 0.0 in
22:15 -0.3 °F -1.5 °F 987.4 in NW 11.3 mph 25.7 mph 92 % 0.0 in
22:30 -0.6 °F -1.8 °F 987.7 in NW 9.7 mph 22.5 mph 91 % 0.0 in
22:45 -0.7 °F -2.0 °F 988.0 in NW 8.0 mph 16.1 mph 91 % 0.0 in
23:00 -0.6 °F -1.9 °F 988.4 in NW 6.4 mph 22.5 mph 91 % 0.0 in
23:15 -0.6 °F -2.0 °F 988.7 in NW 9.7 mph 20.9 mph 90 % 0.0 in
23:30 -0.6 °F -2.0 °F 988.7 in NW 8.0 mph 16.1 mph 90 % 0.0 in
23:45 -0.7 °F -2.0 °F 988.7 in WNW 4.8 mph 11.3 mph 91 % 0.0 in
Esan sääasema
Terveisin Weather Underground - 2.75 mb

Alkuperäinen skripti  Jim McMurry - jmcmurry@mwt.net Sovitettu myös templatelle  Wim van der Kuil - Leuven-Template.eu

Laitteet joita käytämme:

Sääasema
Davis VP2

Sääasemaohjelma
Cumulus

Sääaseman tietokone
Asus EeePC

Palveluntarjoaja
Suncomet

Davis VP2

Cumulus

Asus EeePC

Suncomet